Tiempo atmosférico en la estación meteorológica de San Cristóbal de La Laguna,Llano de los Loros, Santa Cruz de Tenerife (868 m.)



Fecha
DESCASC
Temp. máxima en grados centígrados (hora)
DESCASC
Temp. mínima en grados centígrados (hora)
DESCASC
Temp. media en grados centígrados
DESCASC
Racha de viento máxima en m/sg (hora)
DESCASC
Velocidad máxima media en intervalos de 10 minutos(hora)
DESCASC
Precipitaciones diarias en mm
DESCASC
Precipitaciones de 00:00 a 06:00 en mm
DESCASC
Precipitaciones de 06:00 a 12:00 en mm
DESCASC
Precipitaciones de 12:00 a 18:00 en mm
DESCASC
Precipitaciones de 18:00 a 24:00 en mm
DESCASC
23-06-2019 23.1 (14:10) 13.3 (04:00) 18.2 13.89 (00:10) 10.28 (00:10) 0 0 0 0 0
22-06-2019 19.8 (13:50) 12.8 (01:10) 16.3 15.83 (02:30) 11.11 (22:50) 0 0 0 0 0
21-06-2019 17.9 (15:50) 13.2 (22:40) 15.5 16.94 (20:30) 11.39 (21:10) 0.2 0 0.2 0 0
20-06-2019 18.2 (14:30) 13.5 (00:00) 15.9 12.5 (05:30) 6.11 (05:40) 1 0.4 0.6 0 0
19-06-2019 20.4 (12:50) 13.7 (00:00) 17 9.72 (23:59) 5 (15:50) 0 0 0 0 0
18-06-2019 19.7 (13:40) 14.3 (00:00) 17 -- (--) -- (--) 0 0 0 0 0
17-06-2019 23.2 (14:30) 10.8 (00:00) 17 8.61 (00:50) 5.56 (00:50) 0 0 0 0 0
16-06-2019 -- (--) -- (--) -- -- (--) -- (--) -- 0 -- 0 0
15-06-2019 20.2 (15:00) 9.9 (00:00) 15.1 8.89 (03:00) 5.56 (01:30) 0 0 0 0 0
14-06-2019 18 (14:10) 10.5 (00:00) 14.3 9.17 (14:10) 4.44 (23:59) 0.4 0.4 0 0 0
13-06-2019 17 (13:20) 10.9 (00:00) 13.9 15 (01:30) 7.5 (00:40) 0 0 0 0 0
12-06-2019 14.1 (16:00) 11.4 (00:00) 12.8 15 (17:20) 8.89 (18:00) 26.2 12.8 13 0.2 0.2
11-06-2019 14.3 (16:20) 11.2 (00:00) 12.8 18.06 (22:50) 8.61 (00:40) 14.2 0 4 7.6 2.6
10-06-2019 13.9 (12:20) 11.1 (00:00) 12.5 -- (--) -- (--) -- 0 0 0 --
09-06-2019 16.1 (14:10) 10.7 (00:00) 13.4 15.83 (19:00) 6.39 (18:40) 0 0 0 0 0
08-06-2019 15.3 (13:30) 11.4 (00:00) 13.3 13.89 (01:30) 6.67 (00:50) 10.4 4 6.4 0 0
07-06-2019 17.2 (15:50) 11.2 (00:00) 14.2 15 (04:40) 9.72 (04:50) 1.2 0 0.2 0.2 0.8
06-06-2019 14 (17:40) 11.1 (00:00) 12.6 15.83 (23:50) 9.17 (23:59) 1 0 0.4 0.6 0
05-06-2019 15.8 (14:20) 12.2 (00:00) 14 15.28 (14:30) 8.06 (01:40) 0.4 0.2 0 0 0.2
04-06-2019 20.4 (13:30) 13.5 (00:00) 16.9 15.83 (20:00) 10 (20:00) 0 0 0 0 0
03-06-2019 25.2 (13:20) 18.8 (00:00) 22 13.33 (20:10) 8.33 (17:40) 0 0 0 0 0
02-06-2019 33.2 (13:30) 19.4 (00:00) 26.3 14.72 (23:10) 9.72 (01:40) 0 0 0 0 0
01-06-2019 25.8 (09:50) 16.8 (00:00) 21.3 13.61 (04:10) 8.61 (04:20) 0 0 0 0 0
31-05-2019 26.9 (12:20) 14.6 (00:00) 20.8 10.28 (20:20) 7.78 (20:40) 0 0 0 0 0
30-05-2019 24.2 (15:40) 10.5 (00:00) 17.4 10.56 (00:20) 7.5 (21:20) 0 0 0 0 0
29-05-2019 -- (--) -- (--) -- -- (--) -- (--) -- -- 0.2 0 0
28-05-2019 22.5 (13:00) 12.1 (00:00) 17.3 13.33 (23:50) 9.72 (20:10) 0 0 0 0 0

Gráficas

Temp. máximas Temp. mínimas Temp. medias Precipitaciones Rachas de viento máximas Velocidades máximas media en intervalos de 10 minutos

Datos horarios

Fecha y hora oficial Temperatura (ºC) Velocidad del viento (km/h) Dirección del viento Racha (km/h) Dirección de racha Precipitación (mm) Presión (hPa) Tendencia (hPa) Humedad (%)
2019-06-26 23:00:00 13.6 26 Noroeste 51 Noroeste 0 -- -- 96
2019-06-26 22:00:00 13.6 24 Noroeste 49 Noroeste 0 -- -- 93
2019-06-26 21:00:00 13.7 13 Noroeste 40 Oeste 0 -- -- 94
2019-06-26 20:00:00 14.2 8 Sudoeste 32 Oeste 0 -- -- 90
2019-06-26 19:00:00 15 10 Oeste 45 Noroeste 0 -- -- 90
2019-06-26 18:00:00 15.4 14 Noroeste 41 Noroeste 0 -- -- 88
2019-06-26 17:00:00 15.7 13 Noroeste 34 Noroeste 0 -- -- 90
2019-06-26 16:00:00 17.8 11 Noroeste 29 Noroeste 0 -- -- 80
2019-06-26 15:00:00 18.2 9 Noroeste 22 Oeste 0 -- -- 78
2019-06-26 14:00:00 18.9 6 Sudoeste 24 Noroeste 0 -- -- 80
2019-06-26 13:00:00 17 9 Noroeste 26 Noroeste 0 -- -- 87
2019-06-26 12:00:00 16 7 Noroeste 25 Noroeste 0 -- -- 94
2019-06-26 11:00:00 15.2 10 Noroeste 28 Noroeste 0 -- -- 100
2019-06-26 10:00:00 14.1 9 Noroeste 38 Noroeste 0 -- -- 100
2019-06-26 09:00:00 14 14 Noroeste 44 Noroeste 0 -- -- 99
2019-06-26 08:00:00 14 18 Noroeste 44 Oeste 0 -- -- 100
2019-06-26 07:00:00 14 22 Noroeste 48 Noroeste 0 -- -- 100
2019-06-26 06:00:00 13.8 32 Noroeste 55 Noroeste 0 -- -- 100
2019-06-26 05:00:00 13.8 32 Noroeste 54 Noroeste 0 -- -- 99
2019-06-26 04:00:00 13.9 21 Noroeste 44 Noroeste 0 -- -- 99
2019-06-26 03:00:00 14.3 27 Noroeste 49 Noroeste 0 -- -- 99
2019-06-26 02:00:00 14.2 30 Noroeste 51 Noroeste 0.2 -- -- 99
2019-06-26 01:00:00 14.4 26 Noroeste 46 Noroeste -- -- -- 99
2019-06-26 00:00:00 14.8 27 Noroeste 44 Noroeste 0.4 -- -- 99
2019-06-25 23:00:00 15.1 24 Noroeste 45 Noroeste 0.2 -- -- 99
2019-06-25 22:00:00 15 28 Noroeste 47 Noroeste 0.2 -- -- 99
2019-06-25 21:00:00 15.2 34 Noroeste 52 Noroeste 0.4 -- -- 99
2019-06-25 20:00:00 15.5 18 Noroeste 32 Noroeste 0.2 -- -- 98
2019-06-25 19:00:00 16.1 14 Noroeste 27 Noroeste 0.2 -- -- 97
2019-06-25 18:00:00 17.7 4 Noroeste 20 Noroeste 0 -- -- 91
2019-06-25 17:00:00 18.7 12 Noroeste 28 Noroeste 0 -- -- 86
2019-06-25 16:00:00 18.6 13 Noroeste 23 Noroeste 0 -- -- 87
2019-06-25 15:00:00 20.8 4 Oeste 19 Noroeste 0 -- -- 81
2019-06-25 14:00:00 18.3 9 Noroeste 19 Noroeste 0 -- -- 89
2019-06-25 13:00:00 18.7 9 Noroeste 26 Noroeste 0 -- -- 92
2019-06-25 12:00:00 17.2 14 Noroeste 24 Oeste 0 -- -- 95
2019-06-25 11:00:00 16.7 16 Noroeste 23 Noroeste 0 -- -- 97
2019-06-25 10:00:00 16.8 9 Noroeste 18 Noroeste 0.8 -- -- 98
2019-06-25 09:00:00 16.4 7 Noroeste 22 Noroeste 0.8 -- -- 98
2019-06-25 08:00:00 16.2 11 Noroeste 23 Noroeste 0.6 -- -- 98
2019-06-25 07:00:00 16.5 11 Noroeste 20 Noroeste 0.2 -- -- 98
2019-06-25 06:00:00 16.6 4 Oeste 19 Noroeste 0.2 -- -- 98
2019-06-25 05:00:00 17 9 Noroeste 26 Noroeste 0 -- -- 98
2019-06-25 04:00:00 17 16 Noroeste 31 Noroeste 0 -- -- 98
2019-06-25 03:00:00 17.1 11 Noroeste 24 Oeste 0 -- -- 97
2019-06-25 02:00:00 16.8 15 Noroeste 27 Noroeste 0 -- -- 97
2019-06-25 01:00:00 16.7 17 Noroeste 30 Noroeste 0 -- -- 94
2019-06-25 00:00:00 16.3 18 Noroeste 32 Noroeste 0 -- -- 94
2019-06-24 23:00:00 16 18 Noroeste 30 Noroeste 0 -- -- 95
2019-06-24 22:00:00 16.2 8 Noroeste 23 Oeste 0 -- -- 94
2019-06-24 21:00:00 16.9 8 Noroeste 18 Noroeste 0 -- -- 91
2019-06-24 20:00:00 19 4 Oeste 13 Sudoeste 0 -- -- 83
2019-06-24 19:00:00 22.9 4 Sudeste 9 Sudeste 0 -- -- 74
2019-06-24 18:00:00 23.5 5 Sudeste 9 Sur 0 -- -- 74
2019-06-24 17:00:00 20.9 6 Sudeste 11 Sur 0 -- -- 80
2019-06-24 16:00:00 21.4 8 Sudeste 15 Sudeste 0 -- -- 79
2019-06-24 15:00:00 22.4 8 Sudeste 16 Sudeste 0 -- -- 75
2019-06-24 14:00:00 24.1 9 Sudeste 17 Sudeste 0 -- -- 65
2019-06-24 13:00:00 24.4 10 Sudeste 18 Sudeste 0 -- -- 65
2019-06-24 12:00:00 20.3 8 Sur 18 Sudeste 0 -- -- 76
2019-06-24 11:00:00 21.3 9 Sudeste 15 Sur 0 -- -- 74
2019-06-24 10:00:00 -- 5 Sudeste 11 Noroeste -- -- -- --
2019-06-24 09:00:00 16.2 5 Noroeste 10 Noroeste 0 -- -- 88
2019-06-24 08:00:00 14.4 6 Noroeste 14 Noroeste 0 -- -- 93
2019-06-24 07:00:00 14.7 4 Norte 21 Noroeste 0 -- -- 96
2019-06-24 06:00:00 15.3 14 Noroeste 20 Noroeste 0 -- -- 97
2019-06-24 05:00:00 15.3 9 Noroeste 17 Noroeste 0 -- -- 96
2019-06-24 04:00:00 15.5 15 Noroeste 25 Noroeste 0 -- -- 96
2019-06-24 03:00:00 15.6 20 Noroeste 28 Noroeste 0 -- -- 95
2019-06-24 02:00:00 16 14 Noroeste 23 Oeste 0 -- -- 95
2019-06-24 01:00:00 16.1 9 Noroeste 17 Noroeste 0 -- -- 94
2019-06-24 00:00:00 16.1 11 Noroeste 33 Noroeste 0 -- -- 94
2019-06-23 23:00:00 15.9 27 Noroeste 39 Noroeste 0 -- -- 93
2019-06-23 22:00:00 15.9 24 Noroeste 32 Noroeste 0 -- -- 93
2019-06-23 21:00:00 16.6 12 Noroeste 20 Noroeste 0 -- -- 86
2019-06-23 20:00:00 18.4 6 Noroeste 21 Noroeste 0 -- -- 76
2019-06-23 19:00:00 20.3 8 Oeste 23 Oeste 0 -- -- 67
2019-06-23 18:00:00 20.8 10 Noroeste 28 Oeste 0 -- -- 65
2019-06-23 17:00:00 22.2 8 Oeste 18 Sudoeste 0 -- -- 62
2019-06-23 16:00:00 22.5 4 Sur 15 Sur 0 -- -- 66
2019-06-23 15:00:00 22.1 11 Sudeste 18 Sudeste 0 -- -- 70
2019-06-23 14:00:00 23 7 Sudeste 14 Sudeste 0 -- -- 68
2019-06-23 13:00:00 21.1 7 Sudeste 23 Noroeste 0 -- -- 70
2019-06-23 12:00:00 20.7 4 Sudeste 12 Noroeste 0 -- -- 69
2019-06-23 11:00:00 19.4 5 Oeste 26 Noroeste 0 -- -- 72
2019-06-23 10:00:00 17.7 7 Noroeste 23 Noroeste 0 -- -- 80
2019-06-23 09:00:00 15.8 8 Noroeste 20 Noroeste 0 -- -- 86
2019-06-23 08:00:00 14.2 17 Norte 30 Noroeste 0 -- -- 93
2019-06-23 07:00:00 14 20 Noroeste 35 Noroeste 0 -- -- 97
2019-06-23 06:00:00 14 30 Noroeste 39 Noroeste 0 -- -- 97
2019-06-23 05:00:00 13.6 26 Noroeste 40 Noroeste 0 -- -- 96
2019-06-23 04:00:00 13.3 20 Noroeste 33 Noroeste 0 -- -- 94
2019-06-23 03:00:00 13.9 18 Noroeste 36 Noroeste 0 -- -- 97
2019-06-23 02:00:00 14.1 17 Noroeste 39 Noroeste 0 -- -- 97
2019-06-23 01:00:00 14.2 21 Noroeste 50 Noroeste 0 -- -- 97
2019-06-23 00:00:00 14.1 40 Noroeste 51 Noroeste 0 -- -- 97
2019-06-22 23:00:00 14.3 39 Noroeste 52 Noroeste 0 -- -- 96
2019-06-22 22:00:00 14.3 31 Noroeste 50 Noroeste 0 -- -- 96
2019-06-22 21:00:00 14.4 28 Noroeste 48 Noroeste 0 -- -- 90
2019-06-22 20:00:00 14.7 29 Noroeste 46 Noroeste 0 -- -- 91
2019-06-22 19:00:00 16 24 Noroeste 38 Noroeste 0 -- -- 84
2019-06-22 18:00:00 17.6 19 Noroeste 33 Noroeste 0 -- -- 75
2019-06-22 17:00:00 18.4 15 Noroeste 34 Noroeste 0 -- -- 72
2019-06-22 16:00:00 18.3 19 Noroeste 41 Noroeste 0 -- -- 74
2019-06-22 15:00:00 18.8 18 Noroeste 29 Noroeste 0 -- -- 73
2019-06-22 14:00:00 19.4 14 Norte 27 Norte 0 -- -- 68
2019-06-22 13:00:00 18.4 18 Norte 33 Noroeste 0 -- -- 70
2019-06-22 12:00:00 17.2 21 Noroeste 31 Noroeste 0 -- -- 72
2019-06-22 11:00:00 15.9 13 Noroeste 39 Noroeste 0 -- -- 83
2019-06-22 10:00:00 13.9 30 Noroeste 46 Noroeste 0 -- -- 92
2019-06-22 09:00:00 13.3 24 Noroeste 41 Noroeste 0 -- -- 97
2019-06-22 08:00:00 13.1 21 Noroeste 40 Noroeste 0 -- -- 98
2019-06-22 07:00:00 12.9 18 Noroeste 37 Noroeste 0 -- -- 98
2019-06-22 06:00:00 12.8 22 Noroeste 48 Noroeste 0 -- -- 97
2019-06-22 05:00:00 12.8 28 Noroeste 49 Noroeste 0 -- -- 97
2019-06-22 04:00:00 13 33 Noroeste 51 Noroeste 0 -- -- 98
2019-06-22 03:00:00 13.1 36 Noroeste 57 Noroeste 0 -- -- 97
2019-06-22 02:00:00 13.2 31 Noroeste 47 Noroeste 0 -- -- 97
2019-06-22 01:00:00 13.1 26 Noroeste 41 Noroeste 0 -- -- 97
2019-06-22 00:00:00 13.3 22 Noroeste 44 Noroeste 0 -- -- 96
2019-06-21 23:00:00 13.3 27 Noroeste 54 Noroeste 0 -- -- 96
2019-06-21 22:00:00 13.3 35 Noroeste 58 Noroeste 0 -- -- 95
2019-06-21 21:00:00 13.5 40 Noroeste 61 Noroeste 0 -- -- 92
2019-06-21 20:00:00 14 -- -- -- -- 0 -- -- 89
2019-06-21 19:00:00 14.8 30 Noroeste 48 Noroeste 0 -- -- 88
2019-06-21 18:00:00 15.3 28 Noroeste 50 Noroeste 0 -- -- 86
2019-06-21 17:00:00 16.2 18 Noroeste 44 Noroeste 0 -- -- 81
2019-06-21 16:00:00 17.9 13 Noroeste 43 Norte 0 -- -- 73
2019-06-21 15:00:00 17.5 17 Noroeste 39 Oeste 0 -- -- 73
2019-06-21 14:00:00 17.1 17 Noroeste 42 Noroeste 0 -- -- 75
2019-06-21 13:00:00 15.5 17 Noroeste 36 Oeste 0 -- -- 87
2019-06-21 12:00:00 15.1 15 Noroeste 52 Noroeste 0 -- -- 89
2019-06-21 11:00:00 14 23 Noroeste 47 Noroeste 0 -- -- 95
2019-06-21 10:00:00 13.6 21 Noroeste 44 Noroeste 0 -- -- 98
2019-06-21 09:00:00 13.4 9 Noroeste 37 Noroeste 0.2 -- -- 97
2019-06-21 08:00:00 13.5 17 Noroeste 34 Oeste 0 -- -- 97
2019-06-21 07:00:00 13.5 16 Noroeste 44 Noroeste 0 -- -- 97
2019-06-21 06:00:00 13.5 19 Noroeste 47 Noroeste 0 -- -- 97
2019-06-21 05:00:00 13.5 9 Noroeste 47 Noroeste 0 -- -- 97
2019-06-21 04:00:00 13.5 14 Noroeste 41 Oeste 0 -- -- 96
2019-06-21 03:00:00 13.5 13 Noroeste 38 Noroeste 0 -- -- 95
2019-06-21 02:00:00 13.6 10 Noroeste 36 Noroeste 0 -- -- 95
2019-06-21 01:00:00 13.7 14 Noroeste 44 Noroeste 0 -- -- 95
2019-06-21 00:00:00 14.1 12 Noroeste 39 Noroeste 0 -- -- 96
2019-06-20 23:00:00 14.1 10 Noroeste 36 Oeste 0 -- -- 95
2019-06-20 22:00:00 14.2 11 Nordeste 36 Noroeste 0 -- -- 94
2019-06-20 21:00:00 14.5 9 Noroeste 38 Noroeste 0 -- -- 95
2019-06-20 20:00:00 14.6 16 Noroeste 45 Noroeste 0 -- -- 93
2019-06-20 19:00:00 15.3 19 Noroeste 41 Noroeste 0 -- -- 89
2019-06-20 18:00:00 15.6 13 Noroeste 44 Norte 0 -- -- 90
2019-06-20 17:00:00 17 13 Noroeste 39 Noroeste 0 -- -- 82
2019-06-20 16:00:00 18.2 13 Norte 33 Noroeste 0 -- -- 74
2019-06-20 15:00:00 17.7 12 Noroeste 36 Noroeste 0 -- -- 77
2019-06-20 14:00:00 17.9 14 Oeste 34 Noroeste 0 -- -- 78
2019-06-20 13:00:00 17.5 12 Noroeste 33 Noroeste 0 -- -- 84
2019-06-20 12:00:00 15.8 12 Norte 35 Noroeste 0 -- -- 92
2019-06-20 11:00:00 14.5 9 Norte 30 Oeste 0 -- -- 98
2019-06-20 10:00:00 14.1 15 Noroeste 40 Norte 0 -- -- 98
2019-06-20 09:00:00 13.9 15 Norte 39 Norte 0 -- -- 98
2019-06-20 08:00:00 14.1 12 Noroeste 42 Noroeste 0.2 -- -- 98
2019-06-20 07:00:00 14.1 17 Noroeste 38 Noroeste 0.4 -- -- 98
2019-06-20 06:00:00 14 20 Noroeste 45 Noroeste 0.4 -- -- 97
2019-06-20 05:00:00 13.7 16 Noroeste 34 Noroeste 0 -- -- 97
2019-06-20 04:00:00 13.6 17 Noroeste 40 Noroeste 0 -- -- 96
2019-06-20 03:00:00 13.7 13 Norte 30 Oeste 0 -- -- 95
2019-06-20 02:00:00 13.7 12 Noroeste 26 Noroeste 0 -- -- 96
2019-06-20 01:00:00 14 11 Noroeste 34 Norte 0 -- -- 96
2019-06-20 00:00:00 14.1 18 Noroeste 35 Noroeste 0 -- -- 95
2019-06-19 23:00:00 14.2 17 Noroeste 33 Noroeste 0 -- -- 95
2019-06-19 22:00:00 14.5 13 Norte 31 Noroeste 0 -- -- 94
2019-06-19 21:00:00 14.8 12 Norte 32 Noroeste 0 -- -- 92
2019-06-19 20:00:00 15.4 16 Noroeste 34 Noroeste 0 -- -- 87
2019-06-19 19:00:00 16.2 17 Noroeste 31 Noroeste 0 -- -- 85
2019-06-19 18:00:00 18.1 13 Noroeste 31 Oeste 0 -- -- 74
2019-06-19 17:00:00 19.6 9 Noroeste 28 Noroeste 0 -- -- 68
2019-06-19 16:00:00 19.5 14 Noroeste 30 Noroeste 0 -- -- 69
2019-06-19 15:00:00 18.7 12 Noroeste 25 Noroeste 0 -- -- 73
2019-06-19 14:00:00 20 9 Noroeste -- -- -- -- -- 66
2019-06-19 13:00:00 -- -- -- -- -- -- -- -- --
2019-06-19 12:00:00 -- -- -- -- -- -- -- -- --
2019-06-19 11:00:00 -- -- -- -- -- -- -- -- --
2019-06-19 10:00:00 -- -- -- -- -- -- -- -- --
2019-06-19 09:00:00 -- -- -- -- -- -- -- -- --
2019-06-19 08:00:00 -- -- -- -- -- -- -- -- --
2019-06-19 07:00:00 -- -- -- -- -- -- -- -- --
2019-06-19 06:00:00 -- -- -- -- -- -- -- -- --
2019-06-19 05:00:00 -- -- -- -- -- -- -- -- --
2019-06-19 04:00:00 -- -- -- -- -- -- -- -- --
2019-06-19 03:00:00 -- -- -- -- -- -- -- -- --
2019-06-19 02:00:00 -- -- -- -- -- -- -- -- --
2019-06-19 01:00:00 -- -- -- -- -- -- -- -- --
2019-06-19 00:00:00 -- -- -- -- -- -- -- -- --
2019-06-18 23:00:00 -- -- -- -- -- -- -- -- --
2019-06-18 22:00:00 -- -- -- -- -- -- -- -- --
2019-06-18 21:00:00 -- -- -- -- -- -- -- -- --
2019-06-18 20:00:00 -- -- -- -- -- -- -- -- --
2019-06-18 19:00:00 -- -- -- -- -- -- -- -- --
2019-06-18 18:00:00 18.8 3 Sudeste 11 Sudeste 0 -- -- 83
2019-06-18 17:00:00 18.1 8 Sudeste 14 Sur 0 -- -- 86
2019-06-18 16:00:00 17.9 5 Sudeste 13 Sur 0 -- -- 87
2019-06-18 15:00:00 18 4 Sur 14 Sudeste 0 -- -- 86
2019-06-18 14:00:00 19.5 4 Sur 15 Sudoeste 0 -- -- 78
2019-06-18 13:00:00 18.9 6 Oeste 20 Oeste 0 -- -- 75
2019-06-18 12:00:00 18 4 Norte 17 Oeste 0 -- -- 81
2019-06-18 11:00:00 18.1 6 Noroeste 19 Oeste 0 -- -- 81
2019-06-18 10:00:00 17.5 9 Noroeste 17 Oeste 0 -- -- 83
2019-06-18 09:00:00 16.1 8 Noroeste 22 Noroeste 0 -- -- 90
2019-06-18 08:00:00 14.5 12 Noroeste 25 Norte 0 -- -- 94
2019-06-18 07:00:00 14.6 13 Noroeste 32 Noroeste 0 -- -- 96
2019-06-18 06:00:00 14.6 16 Noroeste 28 Noroeste 0 -- -- 96
2019-06-18 05:00:00 14.5 6 Norte 17 Noroeste 0 -- -- 90
2019-06-18 04:00:00 14.8 7 Noroeste 24 Oeste 0 -- -- 85
2019-06-18 03:00:00 15 15 Noroeste 29 Noroeste 0 -- -- 83
2019-06-18 02:00:00 15.3 13 Noroeste 31 Oeste 0 -- -- 76
2019-06-18 01:00:00 15.2 9 Noroeste 21 Noroeste 0 -- -- 78
2019-06-18 00:00:00 14.4 12 Noroeste 18 Oeste 0 -- -- 90
2019-06-17 23:00:00 15 9 Noroeste 20 Noroeste 0 -- -- 85
2019-06-17 22:00:00 15.3 11 Noroeste 18 Noroeste 0 -- -- 93
2019-06-17 21:00:00 16.2 4 Oeste 13 Oeste 0 -- -- 89
2019-06-17 20:00:00 17.7 8 Oeste 14 Oeste 0 -- -- 81
2019-06-17 19:00:00 19 4 Este 9 Sudeste 0 -- -- 75
2019-06-17 18:00:00 21.3 5 Sudoeste 12 Sudoeste 0 -- -- 65
2019-06-17 17:00:00 22.3 7 Sudeste 15 Oeste 0 -- -- 64
2019-06-17 16:00:00 22.6 5 Sur 13 Sudeste 0 -- -- 62
2019-06-17 15:00:00 22.6 6 Sudeste 17 Sudeste 0 -- -- 61
2019-06-17 14:00:00 22.2 5 Sur 13 Sur 0 -- -- 62
2019-06-17 13:00:00 21.3 6 Sudeste 16 Oeste 0 -- -- 66
2019-06-17 12:00:00 20.7 6 Sudoeste 17 Oeste 0 -- -- 56
2019-06-17 11:00:00 19.8 3 Sur 8 Sudeste 0 -- -- 60
2019-06-17 10:00:00 18.6 2 Oeste 10 Oeste 0 -- -- 63
2019-06-17 09:00:00 16.1 4 Noroeste 10 Noroeste 0 -- -- 65
2019-06-17 08:00:00 13.2 4 Norte 12 Norte 0 -- -- 78
2019-06-17 07:00:00 13 8 Noroeste 24 Noroeste 0 -- -- 78
2019-06-17 06:00:00 12 4 Noroeste 22 Noroeste 0 -- -- 79
2019-06-17 05:00:00 12.8 16 Noroeste 26 Noroeste 0 -- -- 73
2019-06-17 04:00:00 12.6 5 Noroeste 19 Noroeste 0 -- -- 80
2019-06-17 03:00:00 13 11 Noroeste 24 Oeste 0 -- -- 72
2019-06-17 02:00:00 12.9 11 Noroeste 18 Noroeste 0 -- -- 75
2019-06-17 01:00:00 12.9 12 Noroeste 31 Noroeste 0 -- -- 74
2019-06-17 00:00:00 11 6 Noroeste 10 Noroeste 0 -- -- 92
2019-06-16 23:00:00 11.3 4 Noroeste 8 Oeste 0 -- -- 93
2019-06-16 22:00:00 11.5 2 Noroeste 10 Oeste 0 -- -- 85
2019-06-16 21:00:00 13.5 3 Oeste 15 Oeste 0 -- -- 82
2019-06-16 20:00:00 15.6 4 Sudoeste 20 Oeste 0 -- -- 76
2019-06-16 19:00:00 18.4 3 Sur 10 Sudoeste 0 -- -- 69
2019-06-16 18:00:00 19.3 4 Sudeste 12 Sur 0 -- -- 67
2019-06-16 17:00:00 20.5 7 Sudeste 17 Sudeste 0 -- -- 65
2019-06-16 16:00:00 20.8 10 Sudeste 19 Sur 0 -- -- 65
2019-06-16 15:00:00 20.9 12 Sudeste 20 Este 0 -- -- 66
2019-06-16 14:00:00 21 13 Sudeste 18 Sudeste 0 -- -- 67
2019-06-16 13:00:00 20.9 12 Sudeste 19 Sur 0 -- -- 66
2019-06-16 12:00:00 18.3 8 Sur 16 Sudeste 0 -- -- 74
2019-06-16 11:00:00 -- -- -- -- -- -- -- -- --
2019-06-16 10:00:00 14.5 3 Oeste 13 Noroeste 0 -- -- 78
2019-06-16 09:00:00 12.5 3 Noroeste 11 Norte 0 -- -- 87
2019-06-16 08:00:00 10 5 Norte 13 Noroeste 0 -- -- 96
2019-06-16 07:00:00 10.1 9 Noroeste 17 Noroeste 0 -- -- 95
2019-06-16 06:00:00 9.8 10 Noroeste 15 Noroeste 0 -- -- 97
2019-06-16 05:00:00 9 0 Calma 5 Noroeste 0 -- -- 97
2019-06-16 04:00:00 9.4 3 Este 10 Este 0 -- -- 97
2019-06-16 03:00:00 9.6 5 Sudeste 7 Sudeste 0 -- -- 97
2019-06-16 02:00:00 9.2 4 Este 5 Este 0 -- -- 95
2019-06-16 01:00:00 9.6 0 Calma 5 Sur 0 -- -- 95
2019-06-16 00:00:00 9.9 0 Calma 4 Sudeste 0 -- -- 91
2019-06-15 23:00:00 11.4 0 Calma 18 Norte 0 -- -- 87
2019-06-15 22:00:00 11.5 11 Noroeste 18 Noroeste 0 -- -- 86
2019-06-15 21:00:00 12.2 10 Noroeste 21 Noroeste 0 -- -- 82
2019-06-15 20:00:00 13.5 6 Oeste 21 Noroeste 0 -- -- 79
2019-06-15 19:00:00 16.2 9 Noroeste 20 Oeste 0 -- -- 70
2019-06-15 18:00:00 15.3 3 Sudoeste 12 Oeste 0 -- -- 78
2019-06-15 17:00:00 16.4 4 Sudeste 10 Sudeste 0 -- -- 77
2019-06-15 16:00:00 17.4 5 Noroeste 18 Oeste 0 -- -- 72
2019-06-15 15:00:00 20.2 8 Sur 18 Sur 0 -- -- 60
2019-06-15 14:00:00 17.4 9 Sur 20 Sur 0 -- -- 70
2019-06-15 13:00:00 16.8 11 Sur 20 Sudeste 0 -- -- 75
2019-06-15 12:00:00 14.9 8 Sur 16 Sur 0 -- -- 83
2019-06-15 11:00:00 15.1 9 Sudeste 16 Este 0 -- -- 79
2019-06-15 10:00:00 14.7 8 Sudeste 28 Sudeste 0 -- -- 78
2019-06-15 09:00:00 12.1 10 Sudeste 21 Este 0 -- -- 88
2019-06-15 08:00:00 11.2 7 Este 17 Este 0 -- -- 93
2019-06-15 07:00:00 11.3 10 Este 27 Sudeste 0 -- -- 95
2019-06-15 06:00:00 11.2 9 Sudeste 26 Nordeste 0 -- -- 95
2019-06-15 05:00:00 10.8 9 Nordeste 25 Norte 0 -- -- 92
2019-06-15 04:00:00 10.7 15 Nordeste 27 Nordeste 0 -- -- 91
2019-06-15 03:00:00 10.7 19 Nordeste 32 Nordeste 0 -- -- 86
2019-06-15 02:00:00 10.9 17 Nordeste 28 Nordeste 0 -- -- 89
2019-06-15 01:00:00 10.9 15 Nordeste 27 Nordeste 0 -- -- 91
2019-06-15 00:00:00 11.2 16 Nordeste 24 Nordeste 0 -- -- 90
2019-06-14 23:00:00 11.3 14 Nordeste 24 Nordeste 0 -- -- 92
2019-06-14 22:00:00 11.3 10 Norte 23 Nordeste 0 -- -- 92
2019-06-14 21:00:00 11.9 5 Norte 17 Norte 0 -- -- 84
2019-06-14 20:00:00 13.4 10 Norte 23 Norte 0 -- -- 80
2019-06-14 19:00:00 15.2 11 Norte 23 Norte 0 -- -- 68
2019-06-14 18:00:00 15.9 -- -- -- -- 0 -- -- 66
2019-06-14 17:00:00 16.5 7 Norte 19 Norte 0 -- -- 65
2019-06-14 16:00:00 16.4 6 Norte 23 Sudeste 0 -- -- 68
2019-06-14 15:00:00 16.5 9 Nordeste 33 Este 0 -- -- 65
2019-06-14 14:00:00 17.9 11 Este 30 Este 0 -- -- 63
2019-06-14 13:00:00 16.9 9 Nordeste 24 Este 0 -- -- 63
2019-06-14 12:00:00 16.9 7 Sudeste 19 Este 0 -- -- 65
2019-06-14 11:00:00 15.5 5 Sudoeste 20 Este 0 -- -- 64
2019-06-14 10:00:00 13.7 7 Norte 19 Nordeste 0 -- -- 77
2019-06-14 09:00:00 11.9 3 Nordeste 16 Noroeste 0 -- -- 91
2019-06-14 08:00:00 11.2 3 Noroeste 13 Norte 0 -- -- 94
2019-06-14 07:00:00 11 6 Norte 18 Este 0 -- -- 95
2019-06-14 06:00:00 10.7 4 Nordeste 17 Nordeste 0 -- -- 95
2019-06-14 05:00:00 10.7 3 Este 13 Nordeste 0 -- -- 96
2019-06-14 04:00:00 10.7 4 Sur 17 Norte 0 -- -- 96
2019-06-14 03:00:00 10.9 7 Nordeste 18 Noroeste 0 -- -- 95
2019-06-14 02:00:00 11.5 5 Norte 17 Noroeste 0 -- -- 96
2019-06-14 01:00:00 11.8 6 Noroeste 22 Oeste 0.4 -- -- 96
2019-06-14 00:00:00 11.9 4 Noroeste 18 Norte 0 -- -- 95
2019-06-13 23:00:00 11.7 5 Norte 21 Sudeste 0 -- -- 93
2019-06-13 22:00:00 11.9 3 Oeste 21 Noroeste 0 -- -- 92
2019-06-13 21:00:00 12.2 5 Noroeste 17 Nordeste 0 -- -- 88
2019-06-13 20:00:00 13.2 8 Noroeste 21 Oeste 0 -- -- 86
2019-06-13 19:00:00 14.4 7 Oeste 27 Noroeste 0 -- -- 84
2019-06-13 18:00:00 15.8 6 Oeste 22 Oeste 0 -- -- 76
2019-06-13 17:00:00 15.6 5 Noroeste 20 Noroeste 0 -- -- 77
2019-06-13 16:00:00 16 8 Norte 28 Norte 0 -- -- 74
2019-06-13 15:00:00 16.1 16 Noroeste 32 Noroeste 0 -- -- 72
2019-06-13 14:00:00 15.8 11 Norte 30 Este 0 -- -- 73
2019-06-13 13:00:00 16.7 7 Noroeste 24 Este 0 -- -- 73
2019-06-13 12:00:00 14.6 9 Nordeste 26 Norte 0 -- -- 83
2019-06-13 11:00:00 13.8 8 Noroeste 41 Noroeste 0 -- -- 84
2019-06-13 10:00:00 12.1 6 Noroeste 41 Noroeste 0 -- -- 94
2019-06-13 09:00:00 11.3 13 Noroeste 43 Noroeste 0 -- -- 96
2019-06-13 08:00:00 11.2 18 Noroeste 42 Noroeste 0 -- -- 97
2019-06-13 07:00:00 11.3 23 Noroeste 44 Norte 0 -- -- 97
2019-06-13 06:00:00 11 23 Noroeste 52 Noroeste 0 -- -- 93
2019-06-13 05:00:00 11 22 Noroeste 54 Noroeste 0 -- -- 97
2019-06-13 04:00:00 11.3 9 Oeste 50 Noroeste 0 -- -- 98
2019-06-13 03:00:00 11.3 21 Noroeste 52 Noroeste 0 -- -- 97
2019-06-13 02:00:00 -- -- -- -- -- -- -- -- --
2019-06-13 01:00:00 -- -- -- -- -- -- -- -- --
2019-06-13 00:00:00 -- -- -- -- -- -- -- -- --
2019-06-12 23:00:00 -- -- -- -- -- -- -- -- --
2019-06-12 22:00:00 -- -- -- -- -- -- -- -- --
2019-06-12 21:00:00 -- -- -- -- -- -- -- -- --
2019-06-12 20:00:00 -- -- -- -- -- -- -- -- --
2019-06-12 19:00:00 -- -- -- -- -- -- -- -- --
2019-06-12 18:00:00 -- -- -- -- -- -- -- -- --
2019-06-12 17:00:00 -- -- -- -- -- -- -- -- --
2019-06-12 16:00:00 -- -- -- -- -- -- -- -- --
2019-06-12 15:00:00 -- -- -- -- -- -- -- -- --
2019-06-12 14:00:00 -- -- -- -- -- -- -- -- --
2019-06-12 13:00:00 -- -- -- -- -- -- -- -- --
2019-06-12 12:00:00 -- -- -- -- -- -- -- -- --
2019-06-12 11:00:00 -- -- -- -- -- -- -- -- --
2019-06-12 10:00:00 -- -- -- -- -- -- -- -- --
2019-06-12 09:00:00 -- -- -- -- -- -- -- -- --
2019-06-12 08:00:00 -- -- -- -- -- -- -- -- --
2019-06-12 07:00:00 -- -- -- -- -- -- -- -- --
2019-06-12 06:00:00 -- -- -- -- -- -- -- -- --
2019-06-12 05:00:00 -- -- -- -- -- -- -- -- --
2019-06-12 04:00:00 -- -- -- -- -- -- -- -- --
2019-06-12 03:00:00 -- -- -- -- -- -- -- -- --
2019-06-12 02:00:00 -- -- -- -- -- -- -- -- --
2019-06-12 01:00:00 -- -- -- -- -- -- -- -- --
2019-06-12 00:00:00 -- -- -- -- -- -- -- -- --
2019-06-11 23:00:00 -- -- -- -- -- -- -- -- --
2019-06-11 22:00:00 -- -- -- -- -- -- -- -- --
2019-06-11 21:00:00 -- -- -- -- -- -- -- -- --
2019-06-11 20:00:00 -- -- -- -- -- -- -- -- --
2019-06-11 19:00:00 -- -- -- -- -- -- -- -- --
2019-06-11 18:00:00 -- -- -- -- -- -- -- -- --
2019-06-11 17:00:00 -- -- -- -- -- -- -- -- --
2019-06-11 16:00:00 -- -- -- -- -- -- -- -- --
2019-06-11 15:00:00 -- -- -- -- -- -- -- -- --
2019-06-11 14:00:00 -- -- -- -- -- -- -- -- --
2019-06-11 13:00:00 -- -- -- -- -- -- -- -- --
2019-06-11 12:00:00 -- -- -- -- -- -- -- -- --
2019-06-11 11:00:00 -- -- -- -- -- -- -- -- --
2019-06-11 10:00:00 -- -- -- -- -- -- -- -- --
2019-06-11 09:00:00 -- -- -- -- -- -- -- -- --
2019-06-11 08:00:00 -- -- -- -- -- -- -- -- --
2019-06-11 07:00:00 -- -- -- -- -- -- -- -- --
2019-06-11 06:00:00 -- -- -- -- -- -- -- -- --
2019-06-11 05:00:00 -- -- -- -- -- -- -- -- --
2019-06-11 04:00:00 -- -- -- -- -- -- -- -- --
2019-06-11 03:00:00 -- -- -- -- -- -- -- -- --
2019-06-11 02:00:00 -- -- -- -- -- -- -- -- --
2019-06-11 01:00:00 -- -- -- -- -- -- -- -- --
2019-06-11 00:00:00 -- -- -- -- -- -- -- -- --
2019-06-10 23:00:00 -- -- -- -- -- -- -- -- --
2019-06-10 22:00:00 -- -- -- -- -- -- -- -- --
2019-06-10 21:00:00 -- -- -- -- -- -- -- -- --
2019-06-10 20:00:00 -- -- -- -- -- -- -- -- --
2019-06-10 19:00:00 -- -- -- -- -- -- -- -- --
2019-06-10 18:00:00 -- -- -- -- -- -- -- -- --
2019-06-10 17:00:00 -- -- -- -- -- -- -- -- --
2019-06-10 16:00:00 -- -- -- -- -- -- -- -- --
2019-06-10 15:00:00 -- -- -- -- -- -- -- -- --
2019-06-10 14:00:00 13.5 -- -- -- -- 0 -- -- 91
2019-06-10 13:00:00 13.7 17 Noroeste 51 Norte 0 -- -- 89
2019-06-10 12:00:00 13.6 17 Noroeste 44 Nordeste 0 -- -- 91
2019-06-10 11:00:00 12.8 9 Oeste 39 Noroeste 0 -- -- 93
2019-06-10 10:00:00 12.2 14 Norte 36 Norte 0 -- -- 93
2019-06-10 09:00:00 11.6 7 Noroeste 41 Nordeste 0 -- -- 97
2019-06-10 08:00:00 11.7 10 Noroeste 42 Oeste 0 -- -- 97
2019-06-10 07:00:00 -- -- -- -- -- -- -- -- --
2019-06-10 06:00:00 -- -- -- -- -- -- -- -- --
2019-06-10 05:00:00 -- -- -- -- -- -- -- -- --
2019-06-10 04:00:00 -- -- -- -- -- -- -- -- --
2019-06-10 03:00:00 -- -- -- -- -- -- -- -- --
2019-06-10 02:00:00 -- -- -- -- -- -- -- -- --
2019-06-10 01:00:00 11.4 30 Norte 54 Noroeste 0 -- -- 96
2019-06-10 00:00:00 11.5 12 Noroeste 45 Noroeste 0 -- -- 96
2019-06-09 23:00:00 11.4 14 Noroeste 39 Noroeste 0 -- -- 95
2019-06-09 22:00:00 11.6 16 Noroeste 42 Noroeste 0 -- -- 95
2019-06-09 21:00:00 11.7 19 Norte 41 Norte 0 -- -- 94
2019-06-09 20:00:00 12.1 17 Noroeste 44 Noroeste 0 -- -- 94
2019-06-09 19:00:00 12.4 20 Noroeste 57 Noroeste 0 -- -- 90
2019-06-09 18:00:00 13.7 20 Noroeste 47 Noroeste 0 -- -- 81
2019-06-09 17:00:00 -- -- -- -- -- -- -- -- --
2019-06-09 16:00:00 -- -- -- -- -- -- -- -- --
2019-06-09 15:00:00 -- -- -- -- -- -- -- -- --
2019-06-09 14:00:00 -- -- -- -- -- -- -- -- --
2019-06-09 13:00:00 -- -- -- -- -- -- -- -- --
2019-06-09 12:00:00 -- -- -- -- -- -- -- -- --
2019-06-09 11:00:00 -- -- -- -- -- -- -- -- --
2019-06-09 10:00:00 -- -- -- -- -- -- -- -- --
2019-06-09 09:00:00 -- -- -- -- -- -- -- -- --
2019-06-09 08:00:00 10.9 6 Nordeste 28 Norte 0 -- -- 93
2019-06-09 07:00:00 10.8 8 Noroeste 27 Norte 0 -- -- 95
2019-06-09 06:00:00 10.8 9 Noroeste 37 Norte 0 -- -- 93
2019-06-09 05:00:00 11 8 Norte 28 Norte 0 -- -- 96
2019-06-09 04:00:00 11 11 Noroeste 36 Norte 0 -- -- 95
2019-06-09 03:00:00 11 9 Noroeste 41 Nordeste 0 -- -- 92
2019-06-09 02:00:00 11.2 9 Noroeste 44 Norte 0 -- -- 93
2019-06-09 01:00:00 11.3 15 Norte 40 Noroeste 0 -- -- 94
2019-06-09 00:00:00 11.4 14 Norte 45 Noroeste 0 -- -- 95
2019-06-08 23:00:00 11.6 18 Norte 39 Noroeste 0 -- -- 94
2019-06-08 22:00:00 11.9 10 Noroeste 40 Noroeste 0 -- -- 95
2019-06-08 21:00:00 11.9 10 Noroeste 39 Noroeste 0 -- -- 95
2019-06-08 20:00:00 12.1 9 Oeste 35 Oeste 0 -- -- 94
2019-06-08 19:00:00 12.5 13 Oeste 33 Noroeste 0 -- -- 93
2019-06-08 18:00:00 13 14 Noroeste 46 Oeste 0 -- -- 89
2019-06-08 17:00:00 14.4 15 Noroeste 44 Noroeste 0 -- -- 83
2019-06-08 16:00:00 15 13 Noroeste 42 Oeste 0 -- -- 80
2019-06-08 15:00:00 15.2 13 Noroeste 41 Noroeste 0 -- -- 78
2019-06-08 14:00:00 14.9 10 Noroeste 41 Noroeste 0 -- -- 84
2019-06-08 13:00:00 14.1 9 Norte 29 Noroeste 0 -- -- 91
2019-06-08 12:00:00 13.5 6 Noroeste 28 Norte 0.4 -- -- 96
2019-06-08 11:00:00 13 7 Noroeste 28 Oeste 0 -- -- 96
2019-06-08 10:00:00 12.7 11 Nordeste 27 Nordeste 0 -- -- 98
2019-06-08 09:00:00 12.3 5 Noroeste 23 Oeste 0.8 -- -- 98
2019-06-08 08:00:00 12.5 8 Norte 26 Norte 3 -- -- 98
2019-06-08 07:00:00 12.5 9 Norte 32 Noroeste 2.2 -- -- 98
2019-06-08 06:00:00 12.3 10 Nordeste 28 Nordeste 0.6 -- -- 97
2019-06-08 05:00:00 13.1 10 Nordeste 28 Nordeste 0.6 -- -- 98
2019-06-08 04:00:00 13.4 11 Norte 30 Norte 1.2 -- -- 97
2019-06-08 03:00:00 13.9 8 Oeste 35 Noroeste 1.4 -- -- 98
2019-06-08 02:00:00 13.7 15 Noroeste 50 Noroeste 0 -- -- 98
2019-06-08 01:00:00 13.6 23 Noroeste 46 Noroeste 0.2 -- -- 97
2019-06-08 00:00:00 13.7 -- -- -- -- 0.6 -- -- 97
2019-06-07 23:00:00 13.6 21 Noroeste 41 Noroeste 0.2 -- -- 97
2019-06-07 22:00:00 13 26 Noroeste 48 Noroeste 0 -- -- 96
2019-06-07 21:00:00 13.4 26 Noroeste 41 Noroeste 0 -- -- 96
2019-06-07 20:00:00 13.7 15 Noroeste 35 Noroeste 0 -- -- 93
2019-06-07 19:00:00 14.7 9 Noroeste 27 Noroeste 0 -- -- 89
2019-06-07 18:00:00 15.3 6 Sudoeste 28 Oeste 0 -- -- 86
2019-06-07 17:00:00 15.4 7 Oeste 26 Oeste 0 -- -- 84
2019-06-07 16:00:00 16.7 10 Norte 26 Sudoeste 0 -- -- 77
2019-06-07 15:00:00 16 9 Noroeste 36 Noroeste 0 -- -- 83
2019-06-07 14:00:00 14.6 9 Oeste 35 Noroeste 0 -- -- 90
2019-06-07 13:00:00 13.5 8 Noroeste 30 Oeste 0.2 -- -- 95
2019-06-07 12:00:00 14.5 8 Oeste 29 Noroeste 0 -- -- 87
2019-06-07 11:00:00 14.7 10 Noroeste 32 Norte 0 -- -- 84
2019-06-07 10:00:00 12 8 Oeste 27 Oeste 0 -- -- 97
2019-06-07 09:00:00 11.7 7 Noroeste 28 Noroeste 0.2 -- -- 96
2019-06-07 08:00:00 11.5 9 Oeste 34 Oeste 0 -- -- 96
2019-06-07 07:00:00 11.3 11 Noroeste 48 Noroeste 0 -- -- 97
2019-06-07 06:00:00 11.2 28 Noroeste 51 Noroeste 0 -- -- 97
2019-06-07 05:00:00 11.4 34 Noroeste 54 Noroeste 0 -- -- 97
2019-06-07 04:00:00 11.5 25 Noroeste 52 Noroeste 0 -- -- 97
2019-06-07 03:00:00 11.3 26 Noroeste 50 Noroeste 0 -- -- 95
2019-06-07 02:00:00 11.4 23 Noroeste 50 Noroeste 0 -- -- 94
2019-06-07 01:00:00 11.5 18 Noroeste 51 Noroeste 0 -- -- 94
2019-06-07 00:00:00 11.5 33 Noroeste 57 Noroeste 0 -- -- 92
2019-06-06 23:00:00 11.6 -- -- -- -- 0 -- -- 91
2019-06-06 22:00:00 11.5 22 Noroeste 46 Noroeste 0 -- -- 90
2019-06-06 21:00:00 11.5 21 Noroeste 48 Noroeste 0 -- -- 89
2019-06-06 20:00:00 11.9 21 Noroeste 45 Noroeste 0 -- -- 88
2019-06-06 19:00:00 12.9 18 Noroeste 50 Noroeste 0 -- -- 83
2019-06-06 18:00:00 14 14 Noroeste 50 Noroeste 0 -- -- 78
2019-06-06 17:00:00 13.7 14 Noroeste 46 Noroeste 0 -- -- 79
2019-06-06 16:00:00 13.6 9 Noroeste 38 Nordeste 0 -- -- 80
2019-06-06 15:00:00 12.6 12 Noroeste 44 Oeste 0 -- -- 88
2019-06-06 14:00:00 12.3 7 Sur 32 Noroeste 0 -- -- 93
2019-06-06 13:00:00 11.7 11 Norte 41 Oeste 0.6 -- -- 96
2019-06-06 12:00:00 12.1 8 Sudoeste 30 Noroeste 0.4 -- -- 94
2019-06-06 11:00:00 12.9 7 Oeste 36 Noroeste 0 -- -- 85
2019-06-06 10:00:00 13.5 8 Sudoeste 28 Noroeste 0 -- -- 76
2019-06-06 09:00:00 11.7 8 Oeste 24 Norte 0 -- -- 89
2019-06-06 08:00:00 11.1 8 Noroeste 31 Oeste 0 -- -- 91
2019-06-06 07:00:00 11.1 9 Oeste 31 Noroeste 0 -- -- 93
2019-06-06 06:00:00 11.3 8 Noroeste 37 Noroeste 0 -- -- 94
2019-06-06 05:00:00 11.4 6 Noroeste 43 Noroeste 0 -- -- 92
2019-06-06 04:00:00 11.5 10 Noroeste 31 Oeste 0 -- -- 93
2019-06-06 03:00:00 11.8 8 Noroeste 40 Norte 0 -- -- 95
2019-06-06 02:00:00 11.8 8 Oeste 32 Noroeste 0 -- -- 94
2019-06-06 01:00:00 12 9 Noroeste 36 Oeste 0 -- -- 95
2019-06-06 00:00:00 12.2 12 Noroeste 38 Oeste 0.2 -- -- 95
2019-06-05 23:00:00 12.7 12 Oeste 30 Norte 0 -- -- 94
2019-06-05 22:00:00 12.6 9 Este 37 Oeste 0 -- -- 92
2019-06-05 21:00:00 12.9 10 Noroeste 31 Oeste 0 -- -- 92
2019-06-05 20:00:00 13.3 11 Noroeste 31 Norte 0 -- -- 90
2019-06-05 19:00:00 13.6 9 Noroeste 38 Nordeste 0 -- -- 89
2019-06-05 18:00:00 14.2 9 Noroeste 33 Noroeste 0 -- -- 89
2019-06-05 17:00:00 14.2 7 Oeste 33 Noroeste 0 -- -- 89
2019-06-05 16:00:00 14.7 11 Norte 35 Norte 0 -- -- 88
2019-06-05 15:00:00 15.2 8 Norte 55 Noroeste 0 -- -- 85
2019-06-05 14:00:00 15 12 Noroeste 38 Oeste 0 -- -- 86
2019-06-05 13:00:00 15.3 15 Noroeste 50 Nordeste 0 -- -- 85
2019-06-05 12:00:00 14.2 16 Noroeste 45 Noroeste 0 -- -- 90
2019-06-05 11:00:00 13.5 14 Noroeste 45 Noroeste 0 -- -- 96
2019-06-05 10:00:00 13.3 13 Noroeste 39 Oeste 0 -- -- 97
2019-06-05 09:00:00 13.6 14 Norte 39 Oeste 0 -- -- 98
2019-06-05 08:00:00 13.4 13 Noroeste 48 Norte 0 -- -- 98
2019-06-05 07:00:00 13.4 13 Norte 42 Norte 0 -- -- 97
2019-06-05 06:00:00 13.5 12 Noroeste 46 Norte 0 -- -- 97
2019-06-05 05:00:00 13.2 14 Norte 39 Noroeste 0 -- -- 97
2019-06-05 04:00:00 13.6 17 Noroeste 51 Norte 0 -- -- 97
2019-06-05 03:00:00 13.8 24 Noroeste 51 Noroeste 0 -- -- 97
2019-06-05 02:00:00 14.3 22 Noroeste 54 Noroeste 0.2 -- -- 97
2019-06-05 01:00:00 13.7 23 Noroeste 50 Noroeste 0 -- -- 96
2019-06-05 00:00:00 13.5 26 Noroeste 51 Noroeste 0 -- -- 96
2019-06-04 23:00:00 13.6 28 Noroeste 53 Noroeste 0 -- -- 95
2019-06-04 22:00:00 13.8 24 Noroeste 51 Noroeste 0 -- -- 95
2019-06-04 21:00:00 13.6 34 Noroeste 53 Noroeste 0 -- -- 94
2019-06-04 20:00:00 13.9 36 Noroeste 57 Noroeste 0 -- -- 90
2019-06-04 19:00:00 15.7 34 Noroeste 46 Noroeste 0 -- -- 78
2019-06-04 18:00:00 17.3 32 Noroeste 45 Noroeste 0 -- -- 67
2019-06-04 17:00:00 19.2 29 Noroeste 49 Noroeste 0 -- -- 57
2019-06-04 16:00:00 20.1 29 Noroeste 45 Noroeste 0 -- -- 52
2019-06-04 15:00:00 20.4 26 Noroeste 41 Norte 0 -- -- 54
2019-06-04 14:00:00 20.3 27 Noroeste 43 Noroeste 0 -- -- 50
2019-06-04 13:00:00 20 23 Noroeste 46 Noroeste 0 -- -- 43
2019-06-04 12:00:00 20.2 20 Noroeste 38 Noroeste 0 -- -- 40
2019-06-04 11:00:00 19.2 22 Norte 38 Norte 0 -- -- 40
2019-06-04 10:00:00 18.1 26 Norte 41 Norte 0 -- -- 40
2019-06-04 09:00:00 17.7 24 Norte 47 Noroeste 0 -- -- 36
2019-06-04 08:00:00 17.4 26 Norte 44 Norte 0 -- -- 34
2019-06-04 07:00:00 17.5 23 Norte 39 Noroeste 0 -- -- 35
2019-06-04 06:00:00 17.7 24 Norte 42 Norte 0 -- -- 35
2019-06-04 05:00:00 17.8 23 Norte 44 Norte 0 -- -- 33
2019-06-04 04:00:00 17.3 17 Norte 33 Noroeste 0 -- -- 35
2019-06-04 03:00:00 17.8 20 Norte 41 Noroeste 0 -- -- 34
2019-06-04 02:00:00 18 25 Noroeste 43 Noroeste 0 -- -- 32
2019-06-04 01:00:00 18.8 23 Norte 44 Norte 0 -- -- 30
2019-06-04 00:00:00 18.9 22 Norte 43 Noroeste 0 -- -- 27
2019-06-03 23:00:00 19 22 Norte 44 Noroeste 0 -- -- 27
2019-06-03 22:00:00 19 23 Norte 45 Norte 0 -- -- 31
2019-06-03 21:00:00 19.5 21 Norte 48 Norte 0 -- -- 28
2019-06-03 20:00:00 20.5 26 Norte 46 Norte 0 -- -- 30
2019-06-03 19:00:00 21.5 27 Norte 47 Nordeste 0 -- -- 33
2019-06-03 18:00:00 22 28 Norte 48 Norte 0 -- -- 31
2019-06-03 17:00:00 22.9 29 Norte 45 Norte 0 -- -- 33
2019-06-03 16:00:00 24 28 Norte 45 Norte 0 -- -- 30
2019-06-03 15:00:00 24.6 27 Norte 44 Norte 0 -- -- 27
2019-06-03 14:00:00 24.8 26 Norte 41 Noroeste 0 -- -- 28
2019-06-03 13:00:00 24.8 25 Norte 39 Norte 0 -- -- 26
2019-06-03 12:00:00 24.6 25 Norte 36 Norte 0 -- -- 26
2019-06-03 11:00:00 24.3 20 Norte 31 Norte 0 -- -- 23
2019-06-03 10:00:00 23.4 21 Norte 32 Nordeste 0 -- -- 25
2019-06-03 09:00:00 21.8 6 Oeste 22 Sudeste 0 -- -- 28
2019-06-03 08:00:00 21.6 8 Sudoeste 26 Noroeste 0 -- -- 26
2019-06-03 07:00:00 19.5 6 Oeste 28 Norte 0 -- -- 32
2019-06-03 06:00:00 19.3 10 Sudeste 34 Este 0 -- -- 36
2019-06-03 05:00:00 20.3 14 Sudeste 36 Este 0 -- -- 27
2019-06-03 04:00:00 20.6 23 Este 40 Este 0 -- -- 27
2019-06-03 03:00:00 20.6 17 Este 45 Este 0 -- -- 26
2019-06-03 02:00:00 20.8 15 Este 45 Este 0 -- -- 26
2019-06-03 01:00:00 21 25 Este 45 Este 0 -- -- 29
2019-06-03 00:00:00 21 27 Este 53 Este 0 -- -- 31
2019-06-02 23:00:00 21.3 11 Nordeste 32 Sudeste 0 -- -- 32
2019-06-02 22:00:00 22.1 7 Oeste 34 Nordeste 0 -- -- 28
2019-06-02 21:00:00 22.6 10 Norte 30 Norte 0 -- -- 30
2019-06-02 20:00:00 23.5 7 Oeste 30 Nordeste 0 -- -- 30
2019-06-02 19:00:00 25.3 17 Norte 33 Nordeste 0 -- -- 17
2019-06-02 18:00:00 28 7 Sudoeste 21 Norte 0 -- -- 13
2019-06-02 17:00:00 30.7 9 Sudeste 20 Sudeste 0 -- -- 23
2019-06-02 16:00:00 31.5 12 Sudeste 25 Sudeste 0 -- -- 32
2019-06-02 15:00:00 32.5 14 Sudeste 24 Este 0 -- -- 30
2019-06-02 14:00:00 32.8 17 Sudeste 32 Sudeste 0 -- -- 31
2019-06-02 13:00:00 32.8 20 Sudeste 31 Este 0 -- -- 27
2019-06-02 12:00:00 31.9 19 Sudeste 33 Este 0 -- -- 25
2019-06-02 11:00:00 29.9 22 Este 38 Este 0 -- -- 22
2019-06-02 10:00:00 26.5 24 Este 41 Este 0 -- -- 18
2019-06-02 09:00:00 24.3 26 Este 43 Este 0 -- -- 19
2019-06-02 08:00:00 22.9 22 Este 36 Este 0 -- -- 33
2019-06-02 07:00:00 21.9 26 Este 42 Este 0 -- -- 38
2019-06-02 06:00:00 22.4 28 Este 48 Sudeste 0 -- -- 36
2019-06-02 05:00:00 21.4 34 Este 45 Este 0 -- -- 40
2019-06-02 04:00:00 20.7 26 Este 43 Este 0 -- -- 42
2019-06-02 03:00:00 20.6 30 Este 48 Este 0 -- -- 44
2019-06-02 02:00:00 20.4 33 Este 50 Este 0 -- -- 49
2019-06-02 01:00:00 19.6 25 Este 44 Sudeste 0 -- -- 52
2019-06-02 00:00:00 19.4 17 Este 30 Este 0 -- -- 47
2019-06-01 23:00:00 19.9 11 Este 23 Este 0 -- -- 41
2019-06-01 22:00:00 18.8 11 Este 19 Este 0 -- -- 47
2019-06-01 21:00:00 18.4 9 Este 14 Este 0 -- -- 56
2019-06-01 20:00:00 20.1 3 Noroeste 10 Oeste 0 -- -- 60
2019-06-01 19:00:00 21.2 5 Norte 17 Noroeste 0 -- -- 58
2019-06-01 18:00:00 21.5 7 Noroeste 21 Norte 0 -- -- 58
2019-06-01 17:00:00 22.5 6 Nordeste 18 Noroeste 0 -- -- 55
2019-06-01 16:00:00 23.5 6 Sur 23 Noroeste 0 -- -- 54
2019-06-01 15:00:00 24.9 6 Sur 16 Sur 0 -- -- 50
2019-06-01 14:00:00 25.4 6 Sur 15 Oeste 0 -- -- 59
2019-06-01 13:00:00 25 5 Sur 13 Este 0 -- -- 57
2019-06-01 12:00:00 25.6 5 Sur 14 Sudeste 0 -- -- 54
2019-06-01 11:00:00 24.4 5 Sudeste 11 Sur 0 -- -- 53
2019-06-01 10:00:00 25.7 9 Este 26 Este 0 -- -- 43
2019-06-01 09:00:00 24.3 19 Este 27 Este 0 -- -- 35
2019-06-01 08:00:00 20.3 18 Este 24 Este 0 -- -- 39
2019-06-01 07:00:00 21 18 Este 39 Sudeste 0 -- -- 37
2019-06-01 06:00:00 21.7 27 Sudeste 42 Este 0 -- -- 37
2019-06-01 05:00:00 22 30 Este 49 Este 0 -- -- 34
2019-06-01 04:00:00 20.5 20 Este 42 Este 0 -- -- 39
2019-06-01 03:00:00 16.8 4 Oeste 17 Sudoeste 0 -- -- 59
2019-06-01 02:00:00 17.7 5 Oeste 24 Nordeste 0 -- -- 52
2019-06-01 01:00:00 19.2 6 Norte 35 Norte 0 -- -- 42
2019-06-01 00:00:00 19.3 20 Norte 36 Norte 0 -- -- 41
2019-05-31 23:00:00 20.1 26 Norte 35 Norte 0 -- -- 26
2019-05-31 22:00:00 20 26 Norte 35 Norte 0 -- -- 29
2019-05-31 21:00:00 19.7 28 Norte 37 Norte 0 -- -- 33
2019-05-31 20:00:00 20.5 25 Norte 36 Norte 0 -- -- 39
2019-05-31 19:00:00 22.7 21 Norte 27 Norte 0 -- -- 30
2019-05-31 18:00:00 24.3 15 Norte 24 Norte 0 -- -- 30
2019-05-31 17:00:00 24.4 4 Sudeste 12 Sudeste 0 -- -- 47
2019-05-31 16:00:00 24.9 5 Sudeste 11 Sur 0 -- -- 55
2019-05-31 15:00:00 25.6 7 Sudeste 12 Este 0 -- -- 54
2019-05-31 14:00:00 25.8 7 Sur 12 Sudeste 0 -- -- 53
2019-05-31 13:00:00 26.3 7 Sudeste 13 Sudeste 0 -- -- 51
2019-05-31 12:00:00 26.6 6 Sudeste 10 Sudeste 0 -- -- 47
2019-05-31 11:00:00 25 3 Sudeste 9 Este 0 -- -- 48
2019-05-31 10:00:00 22 2 Sur 9 Este 0 -- -- 41
2019-05-31 09:00:00 19.7 6 Sudeste 16 Este 0 -- -- 35
2019-05-31 08:00:00 16.4 9 Este 18 Este 0 -- -- 44
2019-05-31 07:00:00 17 10 Este 17 Este 0 -- -- 28
2019-05-31 06:00:00 14.6 6 Este 11 Este 0 -- -- 39
2019-05-31 05:00:00 14.9 5 Este 7 Este 0 -- -- 33
2019-05-31 04:00:00 14.9 3 Nordeste 9 Norte 0 -- -- 36
2019-05-31 03:00:00 15 2 Este 14 Este 0 -- -- 36
2019-05-31 02:00:00 16.1 6 Este 15 Este 0 -- -- 31
2019-05-31 01:00:00 16.5 4 Oeste 26 Norte 0 -- -- 34
2019-05-31 00:00:00 18.3 19 Norte 28 Norte 0 -- -- 28
2019-05-30 23:00:00 18.1 21 Norte 32 Norte 0 -- -- 28
2019-05-30 22:00:00 17.2 26 Norte 34 Norte 0 -- -- 40
2019-05-30 21:00:00 17.3 27 Norte 34 Norte 0 -- -- 42
2019-05-30 20:00:00 16.6 24 Norte 31 Norte 0 -- -- 57
2019-05-30 19:00:00 19.2 16 Norte 26 Norte 0 -- -- 57
2019-05-30 18:00:00 21.4 10 Norte 20 Norte 0 -- -- 52
2019-05-30 17:00:00 23.2 5 Sudeste 12 Sudeste 0 -- -- 56
2019-05-30 16:00:00 23.9 4 Sudeste 15 Sudeste 0 -- -- 59
2019-05-30 15:00:00 23.7 5 Sur 14 Sur 0 -- -- 60
2019-05-30 14:00:00 23.5 8 Sudeste 14 Sudeste 0 -- -- 59
2019-05-30 13:00:00 23.5 8 Sudeste 13 Sudeste 0 -- -- 59
2019-05-30 12:00:00 22.7 6 Sudeste 13 Sur 0 -- -- 55
2019-05-30 11:00:00 22.4 6 Sudeste 12 Este 0 -- -- 58
2019-05-30 10:00:00 20.4 4 Sur 7 Sudeste 0 -- -- 44
2019-05-30 09:00:00 16.6 0 Calma 5 Este 0 -- -- 47
2019-05-30 08:00:00 13.1 0 Calma 5 Noroeste 0 -- -- 54
2019-05-30 07:00:00 12.5 3 Nordeste 11 Este 0 -- -- 52
2019-05-30 06:00:00 13.2 5 Este 18 Este 0 -- -- 49
2019-05-30 05:00:00 12.6 2 Oeste 18 Este 0 -- -- 55
2019-05-30 04:00:00 11.9 2 Este 17 Este 0 -- -- 62
2019-05-30 03:00:00 11.8 4 Este 13 Oeste 0 -- -- 67
2019-05-30 02:00:00 11.1 6 Oeste 12 Noroeste 0 -- -- 72
2019-05-30 01:00:00 11.5 13 Noroeste 38 Noroeste 0 -- -- 96
2019-05-30 00:00:00 11.6 30 Norte 39 Norte 0 -- -- 96
2019-05-29 23:00:00 11.8 29 Norte 39 Norte 0 -- -- 93
2019-05-29 22:00:00 12 30 Norte 39 Norte 0 -- -- 90
2019-05-29 21:00:00 13.5 28 Norte 34 Norte 0 -- -- 78
2019-05-29 20:00:00 15.6 22 Norte 31 Noroeste 0 -- -- 60
2019-05-29 19:00:00 16.7 17 Norte 32 Norte 0 -- -- 68
2019-05-29 18:00:00 17.2 17 Norte 28 Norte 0 -- -- 70
2019-05-29 17:00:00 22.1 10 Norte 23 Norte 0 -- -- 55
2019-05-29 16:00:00 24.5 8 Sudeste 17 Sudeste 0 -- -- 52
2019-05-29 15:00:00 24.6 8 Sudeste 17 Sudeste 0 -- -- 52
2019-05-29 14:00:00 23.6 7 Sudeste 16 Sudeste 0 -- -- 55
2019-05-29 13:00:00 20.4 6 Sudeste 22 Norte 0 -- -- 66
2019-05-29 12:00:00 18.3 9 Norte 22 Norte 0 -- -- 68
2019-05-29 11:00:00 16.1 11 Norte 26 Norte 0 -- -- 76
2019-05-29 10:00:00 15.7 11 Norte 30 Norte 0 -- -- 73
2019-05-29 09:00:00 12 24 Norte 35 Norte 0 -- -- 98
2019-05-29 08:00:00 11.5 26 Norte 36 Norte 0.2 -- -- 97
2019-05-29 07:00:00 11.6 27 Norte 36 Norte 0 -- -- 98
2019-05-29 06:00:00 -- -- -- -- -- -- -- -- --
2019-05-29 05:00:00 11.9 30 Norte 39 Norte 0 -- -- 98
2019-05-29 04:00:00 11.3 32 Norte 41 Norte 0 -- -- 98
2019-05-29 03:00:00 11.6 32 Norte 42 Norte 0 -- -- 98
2019-05-29 02:00:00 11.5 33 Norte 43 Norte 0 -- -- 98
2019-05-29 01:00:00 11.9 31 Norte 43 Norte 0 -- -- 98
2019-05-29 00:00:00 12.1 33 Norte 48 Noroeste 0 -- -- 97
2019-05-28 23:00:00 12.1 32 Norte 43 Norte 0 -- -- 97
2019-05-28 22:00:00 12.4 34 Norte 46 Norte 0 -- -- 97
2019-05-28 21:00:00 12.7 33 Norte 47 Norte 0 -- -- 96
2019-05-28 20:00:00 13.1 -- -- -- -- 0 -- -- 95
2019-05-28 19:00:00 14.4 31 Norte 40 Norte 0 -- -- 90
2019-05-28 18:00:00 16.1 23 Norte 39 Norte 0 -- -- 81
2019-05-28 17:00:00 17.5 25 Noroeste 37 Norte 0 -- -- 75
2019-05-28 16:00:00 18.6 21 Norte 30 Norte 0 -- -- 68
2019-05-28 15:00:00 18.3 16 Norte 29 Noroeste 0 -- -- 71
2019-05-28 14:00:00 21.1 9 Noroeste 25 Norte 0 -- -- 62
2019-05-28 13:00:00 22.5 9 Sudeste 17 Norte 0 -- -- 58
2019-05-28 12:00:00 21.1 8 Sudeste 14 Sudeste 0 -- -- 65
2019-05-28 11:00:00 18.7 5 Sudeste 12 Sur 0 -- -- 71
2019-05-28 10:00:00 14.3 3 Oeste 32 Norte 0 -- -- 89
2019-05-28 09:00:00 13 22 Norte 35 Nordeste 0 -- -- 97
2019-05-28 08:00:00 12.8 24 Norte 41 Noroeste 0 -- -- 97
2019-05-28 07:00:00 12.8 25 Noroeste 39 Noroeste 0 -- -- 97
2019-05-28 06:00:00 12.6 25 Norte 41 Norte 0 -- -- 96
2019-05-28 05:00:00 12.8 24 Norte 38 Norte 0 -- -- 94
2019-05-28 04:00:00 13.8 24 Norte 44 Nordeste 0 -- -- 84
2019-05-28 03:00:00 13.5 18 Noroeste 40 Nordeste 0 -- -- 85
2019-05-28 02:00:00 12.7 24 Norte 39 Nordeste 0 -- -- 96
2019-05-28 01:00:00 12.9 25 Norte 42 Nordeste 0 -- -- 95
2019-05-28 00:00:00 12.8 29 Norte 42 Norte 0 -- -- 96